Time;durP1;ratioP1;P1;durP2;ratioP2;P2;SDS_P1;SDS_P2;PMS_P1;PMS_P2;Temp;Humidity;BMP_temperature;BMP_pressure;BME280_temperature;BME280_humidity;BME280_pressure;Samples;Min_cycle;Max_cycle;Signal;HPM_P1;HPM_P2
2023/06/23 00:01:16;;;;;;;3.80;1.45;;;;;;;;;;4787349;30;20054;-78
2023/06/23 00:03:45;;;;;;;;;;;;;;;;;;4769854;30;20062;-78
2023/06/23 00:06:16;;;;;;;5.13;1.77;;;;;;;;;;4786912;30;19922;-78
2023/06/23 00:08:42;;;;;;;5.32;1.77;;;;;;;;;;4762161;30;20047;-79
2023/06/23 00:11:14;;;;;;;4.57;1.67;;;;;;;;;;4770956;30;20079;-78
2023/06/23 00:13:40;;;;;;;7.47;1.67;;;;;;;;;;4779323;29;20055;-78
2023/06/23 00:16:07;;;;;;;5.20;1.60;;;;;;;;;;4770284;30;20075;-78
2023/06/23 00:18:39;;;;;;;5.90;1.40;;;;;;;;;;4761469;30;20039;-79
2023/06/23 00:21:05;;;;;;;;;;;;;;;;;;4766182;30;20058;-78
2023/06/23 00:23:31;;;;;;;4.63;1.80;;;;;;;;;;4782989;30;19921;-78
2023/06/23 00:25:58;;;;;;;4.28;1.20;;;;;;;;;;4768119;30;20643;-78
2023/06/23 00:28:24;;;;;;;4.63;1.30;;;;;;;;;;4785419;30;20055;-78
2023/06/23 00:30:51;;;;;;;5.25;1.83;;;;;;;;;;4769837;30;20560;-79
2023/06/23 00:33:22;;;;;;;4.75;1.95;;;;;;;;;;4765171;30;20063;-79
2023/06/23 00:35:53;;;;;;;3.75;1.50;;;;;;;;;;4766413;30;20058;-78
2023/06/23 00:38:25;;;;;;;7.28;1.70;;;;;;;;;;4784667;30;20051;-78
2023/06/23 00:40:54;;;;;;;4.13;1.50;;;;;;;;;;4767261;30;20554;-78
2023/06/23 00:43:22;;;;;;;4.35;1.48;;;;;;;;;;4770432;30;20051;-78
2023/06/23 00:45:51;;;;;;;4.70;1.58;;;;;;;;;;4767623;30;20054;-78
2023/06/23 00:48:18;;;;;;;3.40;1.17;;;;;;;;;;4770008;30;20060;-79
2023/06/23 00:50:44;;;;;;;5.55;1.58;;;;;;;;;;4769609;30;20047;-78
2023/06/23 00:53:10;;;;;;;4.03;1.80;;;;;;;;;;4782427;30;20586;-79
2023/06/23 00:55:37;;;;;;;4.57;1.50;;;;;;;;;;4760461;30;20081;-78
2023/06/23 00:58:08;;;;;;;5.07;1.58;;;;;;;;;;4759821;30;20055;-78
2023/06/23 01:00:36;;;;;;;5.35;2.00;;;;;;;;;;4758772;30;20512;-78
2023/06/23 01:03:03;;;;;;;4.60;1.88;;;;;;;;;;4756517;30;20059;-79
2023/06/23 01:05:31;;;;;;;5.13;2.05;;;;;;;;;;4776285;29;20044;-78
2023/06/23 01:08:13;;;;;;;5.22;2.22;;;;;;;;;;4770122;30;20052;-78
2023/06/23 01:10:48;;;;;;;5.65;2.10;;;;;;;;;;4783422;29;21623;-79
2023/06/23 01:13:21;;;;;;;4.82;1.63;;;;;;;;;;4763047;30;20051;-79
2023/06/23 01:16:02;;;;;;;3.45;1.50;;;;;;;;;;4765740;30;20068;-78
2023/06/23 01:18:59;;;;;;;;;;;;;;;;;;;;;
2023/06/23 01:21:42;;;;;;;;;;;;;;;;;;;;;
2023/06/23 01:24:38;;;;;;;2.30;1.13;;;;;;;;;;4777303;30;20047;-78
2023/06/23 01:27:04;;;;;;;2.85;1.30;;;;;;;;;;4779041;30;20065;-79
2023/06/23 01:29:42;;;;;;;3.20;1.15;;;;;;;;;;4759546;30;20052;-79
2023/06/23 01:32:29;;;;;;;3.30;1.23;;;;;;;;;;4781019;29;20043;-79
2023/06/23 01:35:37;;;;;;;;;;;;;;;;;;;;;
2023/06/23 01:38:47;;;;;;;3.47;1.20;;;;;;;;;;4780552;29;20049;-78
2023/06/23 01:41:23;;;;;;;3.85;1.15;;;;;;;;;;4775814;30;20047;-79
2023/06/23 01:43:50;;;;;;;3.63;1.30;;;;;;;;;;4760786;30;20054;-79
2023/06/23 01:46:25;;;;;;;3.08;1.20;;;;;;;;;;4779989;30;20047;-79
2023/06/23 01:48:54;;;;;;;3.92;1.70;;;;;;;;;;4778377;29;20054;-79
2023/06/23 01:51:23;;;;;;;8.15;2.03;;;;;;;;;;4760777;30;20142;-79
2023/06/23 01:53:52;;;;;;;4.28;1.90;;;;;;;;;;4765584;30;20078;-78
2023/06/23 01:56:29;;;;;;;8.10;2.30;;;;;;;;;;4762374;30;20387;-78
2023/06/23 01:59:15;;;;;;;4.57;1.80;;;;;;;;;;4780816;29;20043;-78
2023/06/23 02:01:50;;;;;;;7.13;2.65;;;;;;;;;;4742321;30;20056;-79
2023/06/23 02:04:58;;;;;;;7.68;4.80;;;;;;;;;;4738842;30;20093;-78
2023/06/23 02:07:56;;;;;;;8.70;5.90;;;;;;;;;;4720030;30;20052;-78
2023/06/23 02:13:39;;;;;;;9.15;6.07;;;;;;;;;;4653555;30;20050;-79
2023/06/23 02:16:09;;;;;;;11.20;6.30;;;;;;;;;;4677437;30;20560;-78
2023/06/23 02:18:40;;;;;;;9.68;5.03;;;;;;;;;;4674009;30;20046;-78
2023/06/23 02:21:32;;;;;;;7.80;4.30;;;;;;;;;;4689101;30;20090;-78
2023/06/23 02:24:14;;;;;;;6.93;2.78;;;;;;;;;;4711650;30;20283;-78
2023/06/23 02:26:45;;;;;;;5.05;1.63;;;;;;;;;;4706553;30;20063;-78
2023/06/23 02:29:24;;;;;;;9.00;2.08;;;;;;;;;;4708822;30;20063;-78
2023/06/23 02:32:09;;;;;;;5.97;2.10;;;;;;;;;;4724920;30;20913;-79
2023/06/23 02:34:40;;;;;;;5.07;1.95;;;;;;;;;;4702468;30;20528;-78
2023/06/23 02:40:16;;;;;;;4.75;1.92;;;;;;;;;;4706936;30;20049;-78
2023/06/23 02:43:05;;;;;;;6.40;2.30;;;;;;;;;;4695166;30;20056;-78
2023/06/23 02:45:39;;;;;;;5.43;2.22;;;;;;;;;;4702575;30;20045;-78
2023/06/23 02:48:28;;;;;;;;;;;;;;;;;;;;;
2023/06/23 02:51:04;;;;;;;7.70;3.28;;;;;;;;;;4758196;30;20056;-79
2023/06/23 02:53:37;;;;;;;4.72;2.10;;;;;;;;;;4765304;30;20043;-78
2023/06/23 02:56:22;;;;;;;6.20;2.40;;;;;;;;;;4754175;30;20495;-78
2023/06/23 03:01:45;;;;;;;11.40;2.55;;;;;;;;;;4725941;30;20052;-78
2023/06/23 03:04:30;;;;;;;6.03;2.45;;;;;;;;;;4744805;30;20055;-78
2023/06/23 03:07:07;;;;;;;5.15;2.08;;;;;;;;;;4750424;30;20059;-78
2023/06/23 03:09:39;;;;;;;5.78;2.08;;;;;;;;;;4758334;30;20436;-78
2023/06/23 03:12:16;;;;;;;4.57;1.87;;;;;;;;;;4766515;30;20047;-78
2023/06/23 03:15:00;;;;;;;3.45;1.77;;;;;;;;;;4765807;30;20102;-78
2023/06/23 03:17:56;;;;;;;5.32;2.30;;;;;;;;;;4750077;30;20185;-78
2023/06/23 03:20:54;;;;;;;;;;;;;;;;;;;;;
2023/06/23 03:23:33;;;;;;;5.50;1.98;;;;;;;;;;4767967;30;20080;-78
2023/06/23 03:31:57;;;;;;;4.70;2.25;;;;;;;;;;4768729;30;20040;-78
2023/06/23 03:34:52;;;;;;;4.80;2.30;;;;;;;;;;4751218;30;20044;-78
2023/06/23 03:37:24;;;;;;;7.00;2.80;;;;;;;;;;4747403;30;20052;-78
2023/06/23 03:40:34;;;;;;;5.38;2.20;;;;;;;;;;4759921;30;20047;-78
2023/06/23 03:46:39;;;;;;;5.03;2.38;;;;;;;;;;4768324;30;20671;-78
2023/06/23 03:49:53;;;;;;;;;;;;;;;;;;;;;
2023/06/23 03:52:32;;;;;;;6.03;2.38;;;;;;;;;;4695178;30;20497;-78
2023/06/23 03:55:30;;;;;;;5.38;2.50;;;;;;;;;;4695753;30;20057;-78
2023/06/23 04:04:21;;;;;;;9.17;4.63;;;;;;;;;;4759599;30;20084;-79
2023/06/23 04:07:14;;;;;;;7.28;4.00;;;;;;;;;;4751861;30;20924;-78
2023/06/23 04:10:00;;;;;;;6.90;3.92;;;;;;;;;;4741469;30;20044;-78
2023/06/23 04:15:50;;;;;;;7.47;4.75;;;;;;;;;;4751429;30;20056;-78
2023/06/23 04:18:17;;;;;;;9.10;5.18;;;;;;;;;;4743533;30;20138;-79
2023/06/23 04:21:06;;;;;;;10.98;5.90;;;;;;;;;;4753324;30;20067;-79
2023/06/23 04:23:36;;;;;;;9.98;5.55;;;;;;;;;;4725418;30;20114;-78
2023/06/23 04:26:12;;;;;;;10.52;5.88;;;;;;;;;;4709860;30;20063;-78
2023/06/23 04:28:59;;;;;;;12.20;5.25;;;;;;;;;;4729190;30;20128;-78
2023/06/23 04:31:47;;;;;;;8.30;4.72;;;;;;;;;;4709841;30;20052;-78
2023/06/23 04:34:16;;;;;;;8.07;4.43;;;;;;;;;;4727125;30;20097;-78
2023/06/23 04:36:48;;;;;;;11.68;5.05;;;;;;;;;;4728862;30;20550;-78
2023/06/23 04:39:43;;;;;;;7.18;4.57;;;;;;;;;;4726008;30;20052;-78
2023/06/23 04:42:13;;;;;;;10.85;4.40;;;;;;;;;;4701283;30;20060;-78
2023/06/23 04:44:43;;;;;;;9.40;4.28;;;;;;;;;;4708933;30;20045;-78
2023/06/23 04:47:12;;;;;;;7.20;3.97;;;;;;;;;;4716188;30;20479;-78
2023/06/23 04:49:42;;;;;;;7.88;3.83;;;;;;;;;;4714849;30;20057;-78
2023/06/23 04:55:29;;;;;;;9.75;4.20;;;;;;;;;;4754982;30;20059;-79
2023/06/23 04:58:10;;;;;;;8.53;2.43;;;;;;;;;;4759793;30;20048;-78
2023/06/23 05:01:33;;;;;;;;;;;;;;;;;;;;;
2023/06/23 05:04:01;;;;;;;11.07;3.20;;;;;;;;;;4676714;30;20470;-78
2023/06/23 05:06:28;;;;;;;7.10;3.35;;;;;;;;;;4677637;30;20567;-78
2023/06/23 05:08:57;;;;;;;8.35;4.22;;;;;;;;;;4726425;30;20834;-78
2023/06/23 05:11:34;;;;;;;8.15;3.97;;;;;;;;;;4751276;30;20074;-78
2023/06/23 05:14:04;;;;;;;10.98;4.78;;;;;;;;;;4751528;30;20059;-78
2023/06/23 05:19:21;;;;;;;14.73;5.00;;;;;;;;;;4754926;30;20075;-79
2023/06/23 05:25:43;;;;;;;9.55;6.38;;;;;;;;;;4754091;30;20774;-80
2023/06/23 05:28:11;;;;;;;11.50;6.72;;;;;;;;;;4745912;30;20047;-83
2023/06/23 05:30:55;;;;;;;;;;;;;;;;;;;;;
2023/06/23 05:44:32;;;;;;;14.68;8.63;;;;;;;;;;4796475;29;20071;-84
2023/06/23 05:47:08;;;;;;;18.38;9.05;;;;;;;;;;4792895;29;20051;-80
2023/06/23 05:50:03;;;;;;;13.13;8.55;;;;;;;;;;4800172;29;20066;-80
2023/06/23 05:52:36;;;;;;;9.45;6.72;;;;;;;;;;4795338;29;20039;-80
2023/06/23 05:55:07;;;;;;;9.18;5.50;;;;;;;;;;4770166;30;20403;-80
2023/06/23 05:57:36;;;;;;;8.45;4.43;;;;;;;;;;4781664;29;20509;-80
2023/06/23 06:00:13;;;;;;;7.15;4.45;;;;;;;;;;4784705;29;20043;-79
2023/06/23 06:02:43;;;;;;;7.60;4.22;;;;;;;;;;4776601;29;20051;-80
2023/06/23 06:05:17;;;;;;;15.48;5.97;;;;;;;;;;4779444;29;20096;-79
2023/06/23 06:07:56;;;;;;;8.90;5.28;;;;;;;;;;4784353;29;20065;-80
2023/06/23 06:10:30;;;;;;;7.78;6.00;;;;;;;;;;4785277;29;20039;-80
2023/06/23 06:13:11;;;;;;;8.55;4.47;;;;;;;;;;4775485;29;20665;-80
2023/06/23 06:15:43;;;;;;;7.72;4.45;;;;;;;;;;4780888;29;20521;-80
2023/06/23 06:18:32;;;;;;;;;;;;;;;;;;;;;
2023/06/23 06:21:07;;;;;;;8.98;3.60;;;;;;;;;;4796262;29;20034;-80
2023/06/23 06:24:09;;;;;;;11.18;3.90;;;;;;;;;;4782715;29;20054;-80
2023/06/23 06:26:56;;;;;;;5.03;3.40;;;;;;;;;;4782765;30;20137;-80
2023/06/23 06:30:00;;;;;;;5.90;3.47;;;;;;;;;;4775834;29;20063;-80
2023/06/23 06:32:43;;;;;;;9.90;3.78;;;;;;;;;;4764166;29;20509;-80
2023/06/23 06:35:18;;;;;;;8.70;4.43;;;;;;;;;;4780132;29;20055;-80
2023/06/23 06:38:40;;;;;;;;;;;;;;;;;;;;;
2023/06/23 06:41:15;;;;;;;;;;;;;;;;;;4783833;29;20049;-80
2023/06/23 06:44:03;;;;;;;7.80;4.38;;;;;;;;;;4778154;29;19921;-80
2023/06/23 06:46:30;;;;;;;8.25;4.25;;;;;;;;;;4771731;29;20053;-80
2023/06/23 06:49:15;;;;;;;8.82;3.70;;;;;;;;;;4797032;29;20540;-80
2023/06/23 06:51:47;;;;;;;7.60;3.72;;;;;;;;;;4782583;30;20047;-80
2023/06/23 06:54:16;;;;;;;8.77;4.32;;;;;;;;;;4798206;29;20051;-80
2023/06/23 06:57:10;;;;;;;6.65;3.63;;;;;;;;;;4786042;29;20137;-80
2023/06/23 06:59:47;;;;;;;6.80;3.40;;;;;;;;;;4801186;29;20046;-80
2023/06/23 07:02:16;;;;;;;10.00;3.58;;;;;;;;;;4776369;30;20043;-80
2023/06/23 07:05:05;;;;;;;6.63;3.40;;;;;;;;;;4783203;29;20047;-80
2023/06/23 07:07:54;;;;;;;6.63;3.55;;;;;;;;;;4781545;29;20115;-80
2023/06/23 07:10:33;;;;;;;6.65;3.10;;;;;;;;;;4786407;29;20071;-80
2023/06/23 07:13:24;;;;;;;9.35;3.92;;;;;;;;;;4783624;29;20581;-81
2023/06/23 07:18:48;;;;;;;6.30;2.63;;;;;;;;;;4799297;29;20078;-81
2023/06/23 07:21:34;;;;;;;11.25;3.30;;;;;;;;;;4801839;29;20842;-80
2023/06/23 07:24:14;;;;;;;6.32;3.05;;;;;;;;;;4766619;30;20093;-80
2023/06/23 07:27:00;;;;;;;7.15;3.30;;;;;;;;;;4773780;30;20097;-80
2023/06/23 07:29:53;;;;;;;6.32;3.13;;;;;;;;;;4776077;29;20050;-81
2023/06/23 07:32:49;;;;;;;5.40;3.17;;;;;;;;;;4785399;29;20115;-81
2023/06/23 07:35:23;;;;;;;6.57;4.07;;;;;;;;;;4795782;29;20054;-81
2023/06/23 07:38:23;;;;;;;7.20;3.78;;;;;;;;;;4782994;29;20067;-80
2023/06/23 07:41:14;;;;;;;7.13;3.58;;;;;;;;;;4745031;30;20149;-80
2023/06/23 07:46:56;;;;;;;8.30;4.00;;;;;;;;;;4741639;30;20047;-80
2023/06/23 07:49:32;;;;;;;6.65;3.75;;;;;;;;;;4745067;30;20063;-80
2023/06/23 07:52:00;;;;;;;6.95;4.28;;;;;;;;;;4735278;30;20052;-80
2023/06/23 07:54:55;;;;;;;7.35;3.67;;;;;;;;;;4732834;30;20900;-80
2023/06/23 07:57:45;;;;;;;5.78;3.50;;;;;;;;;;4718392;30;20061;-80
2023/06/23 08:00:54;;;;;;;7.15;3.75;;;;;;;;;;4753621;30;20216;-80
2023/06/23 08:04:04;;;;;;;7.63;3.85;;;;;;;;;;4651683;30;20047;-81
2023/06/23 08:13:08;;;;;;;7.18;3.40;;;;;;;;;;4691789;30;20569;-81
2023/06/23 08:22:17;;;;;;;6.10;3.72;;;;;;;;;;4626931;31;20051;-81
2023/06/23 08:47:14;;;;;;;;;;;;;;;;;;;;;
2023/06/23 08:55:27;;;;;;;5.95;3.38;;;;;;;;;;4582958;27;15730268;-81
2023/06/23 08:58:06;;;;;;;9.98;4.18;;;;;;;;;;5088860;28;20043;-81
2023/06/23 09:04:14;;;;;;;6.38;3.92;;;;;;;;;;5093154;28;20461;-81
2023/06/23 09:10:21;;;;;;;7.63;4.03;;;;;;;;;;5095115;28;20074;-81
2023/06/23 09:13:08;;;;;;;;;;;;;;;;;;5074633;28;20059;-82
2023/06/23 09:15:48;;;;;;;7.43;4.13;;;;;;;;;;5044940;28;20405;-82
2023/06/23 09:18:17;;;;;;;7.65;4.05;;;;;;;;;;5042710;28;20053;-82
2023/06/23 09:20:57;;;;;;;6.78;4.20;;;;;;;;;;5012565;28;20033;-81
2023/06/23 09:23:33;;;;;;;6.88;4.03;;;;;;;;;;5023054;28;20076;-81
2023/06/23 09:26:06;;;;;;;8.15;4.20;;;;;;;;;;5035045;28;20038;-81
2023/06/23 09:28:52;;;;;;;8.02;4.03;;;;;;;;;;5007308;28;20453;-82
2023/06/23 09:31:21;;;;;;;6.18;3.70;;;;;;;;;;5019474;28;20042;-82
2023/06/23 09:33:51;;;;;;;8.75;4.15;;;;;;;;;;5046960;28;20045;-82
2023/06/23 09:36:20;;;;;;;9.35;4.70;;;;;;;;;;5021844;28;20052;-82
2023/06/23 09:38:49;;;;;;;6.60;3.67;;;;;;;;;;5041386;28;20033;-82
2023/06/23 09:41:20;;;;;;;8.18;3.78;;;;;;;;;;5077233;28;20053;-81
2023/06/23 09:43:53;;;;;;;11.77;4.15;;;;;;;;;;5086480;28;20043;-82
2023/06/23 09:46:32;;;;;;;7.50;3.97;;;;;;;;;;5069326;28;20036;-82
2023/06/23 09:49:01;;;;;;;7.63;3.60;;;;;;;;;;5099547;28;20618;-82
2023/06/23 09:51:56;;;;;;;6.95;3.92;;;;;;;;;;5082855;28;20056;-82
2023/06/23 09:54:53;;;;;;;6.97;3.65;;;;;;;;;;5090777;28;20119;-82
2023/06/23 09:57:23;;;;;;;6.93;3.15;;;;;;;;;;5072048;28;20071;-82
2023/06/23 10:00:05;;;;;;;;;;;;;;;;;;;;;
2023/06/23 10:02:36;;;;;;;7.43;3.30;;;;;;;;;;5089267;28;20028;-82
2023/06/23 10:05:04;;;;;;;6.32;3.33;;;;;;;;;;5066326;28;20105;-82
2023/06/23 10:07:50;;;;;;;5.82;2.90;;;;;;;;;;5074766;28;20044;-82
2023/06/23 10:10:22;;;;;;;6.93;2.97;;;;;;;;;;5070633;28;20058;-82
2023/06/23 10:12:57;;;;;;;4.95;2.80;;;;;;;;;;5070463;28;20028;-82
2023/06/23 10:15:31;;;;;;;5.53;2.92;;;;;;;;;;5073599;28;20040;-82
2023/06/23 10:18:05;;;;;;;6.07;3.13;;;;;;;;;;5087811;28;20032;-82
2023/06/23 10:20:43;;;;;;;7.57;3.10;;;;;;;;;;5081439;28;20073;-81
2023/06/23 10:23:10;;;;;;;5.30;3.17;;;;;;;;;;5066942;28;20028;-82
2023/06/23 10:25:46;;;;;;;5.50;3.28;;;;;;;;;;5073243;28;20040;-82
2023/06/23 10:28:31;;;;;;;8.20;2.78;;;;;;;;;;5065196;28;20051;-82
2023/06/23 10:31:02;;;;;;;7.35;2.85;;;;;;;;;;5062086;28;20040;-82
2023/06/23 10:33:33;;;;;;;5.43;2.47;;;;;;;;;;5046581;28;20045;-82
2023/06/23 10:36:00;;;;;;;10.27;2.78;;;;;;;;;;5046027;28;20052;-82
2023/06/23 10:38:33;;;;;;;5.78;2.70;;;;;;;;;;5053606;28;20044;-82
2023/06/23 10:41:05;;;;;;;4.93;2.78;;;;;;;;;;5043811;28;20382;-82
2023/06/23 10:43:49;;;;;;;5.68;2.70;;;;;;;;;;5052942;28;20029;-82
2023/06/23 10:46:27;;;;;;;4.63;2.33;;;;;;;;;;5046002;28;20044;-82
2023/06/23 10:49:04;;;;;;;6.80;2.75;;;;;;;;;;5070432;28;20504;-82
2023/06/23 10:51:41;;;;;;;5.38;2.65;;;;;;;;;;5059454;28;20074;-82
2023/06/23 10:54:25;;;;;;;5.00;2.42;;;;;;;;;;5068093;28;20028;-82
2023/06/23 10:57:01;;;;;;;4.28;2.42;;;;;;;;;;5055143;28;20147;-82
2023/06/23 10:59:33;;;;;;;5.28;2.40;;;;;;;;;;5047837;28;20115;-82
2023/06/23 11:02:19;;;;;;;5.35;2.58;;;;;;;;;;5062472;28;20037;-82
2023/06/23 11:04:52;;;;;;;3.90;2.30;;;;;;;;;;5062051;28;20070;-82
2023/06/23 11:07:23;;;;;;;8.70;2.63;;;;;;;;;;5046579;28;20090;-82
2023/06/23 11:09:59;;;;;;;5.63;2.33;;;;;;;;;;5050166;28;20052;-82
2023/06/23 11:12:38;;;;;;;4.03;2.05;;;;;;;;;;5049419;28;20032;-82
2023/06/23 11:15:21;;;;;;;7.65;2.70;;;;;;;;;;5059160;28;20071;-81
2023/06/23 11:18:02;;;;;;;4.57;2.17;;;;;;;;;;5048268;28;20070;-82
2023/06/23 11:20:32;;;;;;;3.67;2.22;;;;;;;;;;5035026;28;20081;-82
2023/06/23 11:23:09;;;;;;;5.03;2.40;;;;;;;;;;5049790;28;20230;-82
2023/06/23 11:25:42;;;;;;;8.05;2.58;;;;;;;;;;5057918;28;20393;-82
2023/06/23 11:28:23;;;;;;;6.72;2.58;;;;;;;;;;5065624;28;20437;-81
2023/06/23 11:30:56;;;;;;;3.55;1.92;;;;;;;;;;5044204;28;20031;-82
2023/06/23 11:33:25;;;;;;;4.20;1.80;;;;;;;;;;5069376;28;20070;-82
2023/06/23 11:35:52;;;;;;;5.70;2.40;;;;;;;;;;5062056;28;20048;-82
2023/06/23 11:38:19;;;;;;;4.88;2.05;;;;;;;;;;5065250;28;20033;-82
2023/06/23 11:40:45;;;;;;;4.15;1.77;;;;;;;;;;5066607;28;20095;-82
2023/06/23 11:43:14;;;;;;;3.35;1.83;;;;;;;;;;5052335;28;20105;-82
2023/06/23 11:45:45;;;;;;;4.63;2.10;;;;;;;;;;5051179;28;20041;-82
2023/06/23 11:48:11;;;;;;;;;;;;;;;;;;5059021;28;20032;-82
2023/06/23 11:50:40;;;;;;;4.28;1.92;;;;;;;;;;5063080;28;19912;-82
2023/06/23 11:53:07;;;;;;;4.07;2.10;;;;;;;;;;5064353;28;20044;-82
2023/06/23 11:55:33;;;;;;;4.85;2.15;;;;;;;;;;5058576;28;20032;-81
2023/06/23 11:57:59;;;;;;;3.58;1.98;;;;;;;;;;5057176;28;20037;-82
2023/06/23 12:00:25;;;;;;;4.40;2.25;;;;;;;;;;5067956;28;20035;-82
2023/06/23 12:02:51;;;;;;;4.32;1.70;;;;;;;;;;5051092;28;20040;-82
2023/06/23 12:05:17;;;;;;;4.88;1.90;;;;;;;;;;5066749;28;20039;-82
2023/06/23 12:07:43;;;;;;;5.10;2.22;;;;;;;;;;5043141;28;20040;-82
2023/06/23 12:10:10;;;;;;;3.25;1.50;;;;;;;;;;5063449;28;20064;-82
2023/06/23 12:12:36;;;;;;;4.47;2.00;;;;;;;;;;5064521;28;20045;-82
2023/06/23 12:15:02;;;;;;;3.38;1.85;;;;;;;;;;5044686;28;20037;-81
2023/06/23 12:17:28;;;;;;;3.83;1.88;;;;;;;;;;5051006;28;20124;-82
2023/06/23 12:19:55;;;;;;;3.22;1.80;;;;;;;;;;5056225;28;20032;-82
2023/06/23 12:22:21;;;;;;;6.57;2.05;;;;;;;;;;5048614;28;20102;-82
2023/06/23 12:24:47;;;;;;;6.53;2.33;;;;;;;;;;5063397;28;20103;-81
2023/06/23 12:27:13;;;;;;;3.33;2.10;;;;;;;;;;5048852;28;20566;-82
2023/06/23 12:29:39;;;;;;;4.88;1.80;;;;;;;;;;5065106;28;20036;-82
2023/06/23 12:32:05;;;;;;;3.88;1.70;;;;;;;;;;5044128;28;20043;-82
2023/06/23 12:34:35;;;;;;;3.90;1.90;;;;;;;;;;5053664;28;20056;-82
2023/06/23 12:37:05;;;;;;;4.63;1.73;;;;;;;;;;5069037;28;20029;-82
2023/06/23 12:39:33;;;;;;;3.70;1.83;;;;;;;;;;5067167;28;20024;-82
2023/06/23 12:41:59;;;;;;;3.55;1.77;;;;;;;;;;5069469;28;20032;-82
2023/06/23 12:44:26;;;;;;;4.70;1.70;;;;;;;;;;5063334;28;20028;-82
2023/06/23 12:46:54;;;;;;;5.03;1.80;;;;;;;;;;5068943;28;20036;-82
2023/06/23 12:49:21;;;;;;;2.95;1.60;;;;;;;;;;5064082;28;20086;-82
2023/06/23 12:51:47;;;;;;;4.90;1.83;;;;;;;;;;5051773;28;20120;-81
2023/06/23 12:54:13;;;;;;;4.60;1.90;;;;;;;;;;5067557;28;20062;-82
2023/06/23 12:56:39;;;;;;;3.30;1.55;;;;;;;;;;5069129;28;20055;-81
2023/06/23 12:59:05;;;;;;;4.22;1.90;;;;;;;;;;5050260;28;20787;-81
2023/06/23 13:01:31;;;;;;;3.65;1.80;;;;;;;;;;5054295;28;20037;-81
2023/06/23 13:03:57;;;;;;;3.80;1.92;;;;;;;;;;5067270;28;20025;-82
2023/06/23 13:06:23;;;;;;;5.88;2.00;;;;;;;;;;5063969;28;20041;-81
2023/06/23 13:08:52;;;;;;;7.00;1.95;;;;;;;;;;5063666;28;20387;-81
2023/06/23 13:11:18;;;;;;;4.28;2.17;;;;;;;;;;5061280;28;20060;-82
2023/06/23 13:13:44;;;;;;;3.38;1.90;;;;;;;;;;5064246;28;20040;-81
2023/06/23 13:16:10;;;;;;;4.28;2.10;;;;;;;;;;5068534;28;20041;-81
2023/06/23 13:18:36;;;;;;;3.05;1.77;;;;;;;;;;5044313;28;20450;-81
2023/06/23 13:21:02;;;;;;;5.63;1.75;;;;;;;;;;5063679;28;20032;-81
2023/06/23 13:23:28;;;;;;;5.32;2.08;;;;;;;;;;5065513;28;20032;-81
2023/06/23 13:25:54;;;;;;;5.93;2.20;;;;;;;;;;5062706;28;20576;-81
2023/06/23 13:28:20;;;;;;;5.25;2.38;;;;;;;;;;5057741;28;20037;-81
2023/06/23 13:30:46;;;;;;;4.18;1.92;;;;;;;;;;5051286;28;20029;-82
2023/06/23 13:33:14;;;;;;;3.97;1.80;;;;;;;;;;5062595;28;20058;-81
2023/06/23 13:35:40;;;;;;;5.88;1.92;;;;;;;;;;5032133;28;20043;-81
2023/06/23 13:38:06;;;;;;;3.95;1.65;;;;;;;;;;5065274;28;20029;-81
2023/06/23 13:40:32;;;;;;;4.00;1.83;;;;;;;;;;5066199;28;20051;-81
2023/06/23 13:42:58;;;;;;;3.90;2.08;;;;;;;;;;5068053;28;20021;-82
2023/06/23 13:45:26;;;;;;;4.47;2.22;;;;;;;;;;5066007;28;20029;-82
2023/06/23 13:47:54;;;;;;;5.22;2.13;;;;;;;;;;5062315;28;20111;-81
2023/06/23 13:50:20;;;;;;;4.93;2.30;;;;;;;;;;5065822;28;20078;-81
2023/06/23 13:52:46;;;;;;;5.75;1.77;;;;;;;;;;5057787;28;20094;-81
2023/06/23 13:55:12;;;;;;;6.07;2.50;;;;;;;;;;5069974;28;20032;-81
2023/06/23 13:57:39;;;;;;;5.90;2.33;;;;;;;;;;5054413;28;20028;-81
2023/06/23 14:00:06;;;;;;;5.40;2.00;;;;;;;;;;5068025;28;20028;-81
2023/06/23 14:02:32;;;;;;;5.97;2.10;;;;;;;;;;5071783;28;20905;-82
2023/06/23 14:04:58;;;;;;;3.65;1.80;;;;;;;;;;5049253;28;20090;-82
2023/06/23 14:07:25;;;;;;;3.58;1.70;;;;;;;;;;5072206;28;20043;-81
2023/06/23 14:09:51;;;;;;;3.25;1.70;;;;;;;;;;5069157;28;20064;-81
2023/06/23 14:12:17;;;;;;;2.70;1.52;;;;;;;;;;5072169;28;20094;-82
2023/06/23 14:14:43;;;;;;;5.68;2.00;;;;;;;;;;5060366;28;20466;-81
2023/06/23 14:17:09;;;;;;;4.28;2.10;;;;;;;;;;5071981;28;20480;-81
2023/06/23 14:19:35;;;;;;;3.58;1.70;;;;;;;;;;5069253;28;20033;-81
2023/06/23 14:22:03;;;;;;;3.20;1.80;;;;;;;;;;5053976;28;20037;-81
2023/06/23 14:24:29;;;;;;;5.18;2.38;;;;;;;;;;5052446;28;20032;-81
2023/06/23 14:26:55;;;;;;;4.63;1.88;;;;;;;;;;5053358;28;20037;-81
2023/06/23 14:29:21;;;;;;;4.00;1.70;;;;;;;;;;5056049;28;20040;-81
2023/06/23 14:31:48;;;;;;;3.85;1.60;;;;;;;;;;5060384;28;20356;-81
2023/06/23 14:34:14;;;;;;;3.80;1.50;;;;;;;;;;5065522;28;20111;-81
2023/06/23 14:36:40;;;;;;;4.38;1.95;;;;;;;;;;5068107;28;20051;-81
2023/06/23 14:39:06;;;;;;;6.68;1.88;;;;;;;;;;5071341;28;20461;-81
2023/06/23 14:41:33;;;;;;;5.18;1.90;;;;;;;;;;5052966;28;20076;-81
2023/06/23 14:43:59;;;;;;;4.85;2.35;;;;;;;;;;5062807;28;20033;-81
2023/06/23 14:46:24;;;;;;;6.60;1.70;;;;;;;;;;5061989;28;20540;-81
2023/06/23 14:48:50;;;;;;;4.65;1.88;;;;;;;;;;5053175;28;20123;-81
2023/06/23 14:51:17;;;;;;;6.07;2.15;;;;;;;;;;5065672;28;20040;-81
2023/06/23 14:53:43;;;;;;;3.30;1.60;;;;;;;;;;5071420;28;20449;-81
2023/06/23 14:56:11;;;;;;;4.50;2.00;;;;;;;;;;5063106;28;20033;-81
2023/06/23 14:58:37;;;;;;;5.72;2.47;;;;;;;;;;5063254;28;20033;-81
2023/06/23 15:01:03;;;;;;;3.88;1.98;;;;;;;;;;5062998;28;20025;-81
2023/06/23 15:03:29;;;;;;;4.45;1.95;;;;;;;;;;5067856;28;20064;-81
2023/06/23 15:05:55;;;;;;;4.05;1.90;;;;;;;;;;5061170;28;20056;-81
2023/06/23 15:08:21;;;;;;;4.43;2.42;;;;;;;;;;5070106;28;20040;-81
2023/06/23 15:10:48;;;;;;;3.50;1.85;;;;;;;;;;5060050;28;20049;-81
2023/06/23 15:13:14;;;;;;;3.97;2.08;;;;;;;;;;5039528;28;20871;-81
2023/06/23 15:15:40;;;;;;;3.30;1.65;;;;;;;;;;5050788;28;20033;-81
2023/06/23 15:18:07;;;;;;;4.25;2.30;;;;;;;;;;5067449;28;20111;-81
2023/06/23 15:20:34;;;;;;;6.47;2.20;;;;;;;;;;5070664;28;20043;-81
2023/06/23 15:23:01;;;;;;;3.88;1.63;;;;;;;;;;5051862;28;20025;-81
2023/06/23 15:25:27;;;;;;;4.35;1.75;;;;;;;;;;5071016;28;20111;-81
2023/06/23 15:27:52;;;;;;;3.38;1.55;;;;;;;;;;5051817;28;20120;-81
2023/06/23 15:30:18;;;;;;;3.63;2.10;;;;;;;;;;5048386;28;20036;-81
2023/06/23 15:32:44;;;;;;;4.30;2.30;;;;;;;;;;5051307;28;20036;-81
2023/06/23 15:35:10;;;;;;;5.97;2.33;;;;;;;;;;5058747;28;20501;-81
2023/06/23 15:37:40;;;;;;;5.18;1.95;;;;;;;;;;5058165;28;20029;-81
2023/06/23 15:40:10;;;;;;;6.43;1.98;;;;;;;;;;5070636;28;20119;-81
2023/06/23 15:42:37;;;;;;;4.72;2.10;;;;;;;;;;5060611;28;20444;-81
2023/06/23 15:45:03;;;;;;;4.13;1.85;;;;;;;;;;5066167;28;20028;-81
2023/06/23 15:47:29;;;;;;;8.90;1.98;;;;;;;;;;5062153;28;20527;-81
2023/06/23 15:49:55;;;;;;;3.58;2.15;;;;;;;;;;5069354;28;20059;-81
2023/06/23 15:52:21;;;;;;;4.82;2.00;;;;;;;;;;5066978;28;20041;-81
2023/06/23 15:54:47;;;;;;;5.18;1.95;;;;;;;;;;5042924;28;20479;-81
2023/06/23 15:57:15;;;;;;;5.43;2.13;;;;;;;;;;5066140;28;20033;-81
2023/06/23 15:59:41;;;;;;;9.13;2.25;;;;;;;;;;5067961;28;20032;-81
2023/06/23 16:02:07;;;;;;;4.05;1.95;;;;;;;;;;5057949;28;20428;-81
2023/06/23 16:04:33;;;;;;;4.60;2.33;;;;;;;;;;5062869;28;20055;-86
2023/06/23 16:06:59;;;;;;;4.10;2.03;;;;;;;;;;5047585;28;20076;-85
2023/06/23 16:09:25;;;;;;;5.40;2.20;;;;;;;;;;5047860;28;20044;-83
2023/06/23 16:12:07;;;;;;;3.60;2.05;;;;;;;;;;5175746;22;20044;-85
2023/06/23 16:14:33;;;;;;;;;;;;;;;;;;5064812;28;20118;-85
2023/06/23 16:17:00;;;;;;;4.70;2.10;;;;;;;;;;5060394;28;20485;-83
2023/06/23 16:28:19;;;;;;;7.35;2.95;;;;;;;;;;3868211;26;20053;-84
2023/06/23 16:30:50;;;;;;;5.70;2.28;;;;;;;;;;5025975;28;20087;-85
2023/06/23 16:33:19;;;;;;;3.65;1.95;;;;;;;;;;5044235;28;20040;-84
2023/06/23 16:35:48;;;;;;;5.50;2.63;;;;;;;;;;5033958;28;20028;-83
2023/06/23 16:41:25;;;;;;;5.38;2.38;;;;;;;;;;5036955;28;20041;-86
2023/06/23 16:43:51;;;;;;;4.20;2.03;;;;;;;;;;5027355;28;20033;-86
2023/06/23 16:46:17;;;;;;;4.28;2.17;;;;;;;;;;5034059;28;20048;-85
2023/06/23 16:48:43;;;;;;;5.68;2.13;;;;;;;;;;5031242;28;20032;-86
2023/06/23 16:51:09;;;;;;;4.10;2.22;;;;;;;;;;5047928;28;20048;-88
2023/06/23 16:53:35;;;;;;;4.07;2.40;;;;;;;;;;5030016;28;20029;-85
2023/06/23 16:56:05;;;;;;;4.07;2.30;;;;;;;;;;5047539;28;20138;-86
2023/06/23 16:58:31;;;;;;;3.83;1.92;;;;;;;;;;5031704;28;20025;-87
2023/06/23 17:00:57;;;;;;;5.72;1.88;;;;;;;;;;5025960;28;20037;-86
2023/06/23 17:03:23;;;;;;;6.88;2.28;;;;;;;;;;5034875;28;20462;-85
2023/06/23 17:05:49;;;;;;;3.65;1.73;;;;;;;;;;5045765;28;20037;-85
2023/06/23 17:08:15;;;;;;;6.05;2.08;;;;;;;;;;5047130;28;20538;-85
2023/06/23 17:10:41;;;;;;;4.07;2.00;;;;;;;;;;5049335;28;20048;-87
2023/06/23 17:13:07;;;;;;;4.97;2.08;;;;;;;;;;5027998;28;20021;-87
2023/06/23 17:15:33;;;;;;;3.85;1.65;;;;;;;;;;5031155;28;20037;-88
2023/06/23 17:17:59;;;;;;;3.58;1.73;;;;;;;;;;5026676;28;20035;-85
2023/06/23 17:20:25;;;;;;;4.43;1.70;;;;;;;;;;5052568;28;20037;-84
2023/06/23 17:22:51;;;;;;;5.03;2.13;;;;;;;;;;5046182;28;20127;-84
2023/06/23 17:25:17;;;;;;;4.70;2.00;;;;;;;;;;5040776;28;20119;-83
2023/06/23 17:27:43;;;;;;;5.60;2.47;;;;;;;;;;5033111;28;20487;-85
2023/06/23 17:30:10;;;;;;;5.00;2.33;;;;;;;;;;5029382;28;20045;-85